Time,TemperatureF,DewpointF,PressureIn,WindDirection,WindDirectionDegrees,WindSpeedMPH,WindSpeedGustMPH,Humidity,HourlyPrecipIn,Conditions,Clouds,dailyrainin,SoftwareType,DateUTC
2013-06-15 00:02:00,65.0,54.0,-100.00,SE,125,1.0,4.0,68,0.00,,,-99.99,,2013-06-15 05:02:00,
2013-06-15 00:12:00,65.0,54.0,-100.00,SE,125,1.0,4.0,68,0.00,,,-99.99,,2013-06-15 05:12:00,
2013-06-15 00:22:00,64.0,53.0,-100.00,South,180,2.0,6.0,68,0.00,,,-99.99,,2013-06-15 05:22:00,
2013-06-15 00:43:00,64.0,53.0,-100.00,South,180,2.0,6.0,68,0.00,,,-99.99,,2013-06-15 05:43:00,
2013-06-15 00:52:00,64.0,53.0,-100.00,South,180,2.0,6.0,68,0.00,,,-99.99,,2013-06-15 05:52:00,
2013-06-15 01:02:00,64.0,53.0,-100.00,South,180,2.0,6.0,68,0.00,,,-99.99,,2013-06-15 06:02:00,
2013-06-15 01:12:00,64.0,53.0,-100.00,South,180,2.0,6.0,68,0.00,,,-99.99,,2013-06-15 06:12:00,
2013-06-15 01:21:00,63.0,51.0,-100.00,SSE,165,5.0,7.0,65,0.00,,,-99.99,,2013-06-15 06:21:00,
2013-06-15 01:43:00,63.0,51.0,-100.00,SSE,165,5.0,7.0,65,0.00,,,-99.99,,2013-06-15 06:43:00,
2013-06-15 01:53:00,63.0,51.0,-100.00,SSE,165,5.0,7.0,65,0.00,,,-99.99,,2013-06-15 06:53:00,
2013-06-15 02:01:00,63.0,51.0,-100.00,SSE,165,5.0,7.0,65,0.00,,,-99.99,,2013-06-15 07:01:00,
2013-06-15 02:11:00,63.0,51.0,-100.00,SSE,165,5.0,7.0,65,0.00,,,-99.99,,2013-06-15 07:11:00,
2013-06-15 02:22:00,62.0,55.0,-100.00,South,180,7.0,10.0,79,0.45,,,-99.99,,2013-06-15 07:22:00,
2013-06-15 02:43:00,62.0,55.0,-100.00,South,180,7.0,10.0,79,0.45,,,-99.99,,2013-06-15 07:43:00,
2013-06-15 02:53:00,62.0,55.0,-100.00,South,180,7.0,10.0,79,0.45,,,-99.99,,2013-06-15 07:53:00,
2013-06-15 03:02:00,62.0,55.0,-100.00,South,180,7.0,10.0,79,0.45,,,-99.99,,2013-06-15 08:02:00,
2013-06-15 03:11:00,62.0,55.0,-100.00,South,180,7.0,10.0,79,0.45,,,-99.99,,2013-06-15 08:11:00,
2013-06-15 03:22:00,59.0,55.0,-100.00,SE,130,2.0,4.0,89,0.00,,,-99.99,,2013-06-15 08:22:00,
2013-06-15 03:43:00,59.0,55.0,-100.00,SE,130,2.0,4.0,89,0.00,,,-99.99,,2013-06-15 08:43:00,
2013-06-15 03:53:00,59.0,55.0,-100.00,SE,130,2.0,4.0,89,0.00,,,-99.99,,2013-06-15 08:53:00,
2013-06-15 04:02:00,59.0,55.0,-100.00,SE,130,2.0,4.0,89,0.00,,,-99.99,,2013-06-15 09:02:00,
2013-06-15 04:12:00,59.0,55.0,-100.00,SE,130,2.0,4.0,89,0.00,,,-99.99,,2013-06-15 09:12:00,
2013-06-15 04:23:00,58.0,55.0,-100.00,South,175,8.0,11.0,91,0.03,,,-99.99,,2013-06-15 09:23:00,
2013-06-15 04:43:00,58.0,55.0,-100.00,South,175,8.0,11.0,91,0.03,,,-99.99,,2013-06-15 09:43:00,
2013-06-15 04:52:00,58.0,55.0,-100.00,South,175,8.0,11.0,91,0.03,,,-99.99,,2013-06-15 09:52:00,
2013-06-15 05:02:00,58.0,55.0,-100.00,South,175,8.0,11.0,91,0.03,,,-99.99,,2013-06-15 10:02:00,
2013-06-15 05:11:00,58.0,55.0,-100.00,South,175,8.0,11.0,91,0.03,,,-99.99,,2013-06-15 10:11:00,
2013-06-15 05:22:00,58.0,55.0,-100.00,SSW,210,7.0,15.0,91,0.21,,,-99.99,,2013-06-15 10:22:00,
2013-06-15 05:44:00,58.0,55.0,-100.00,SSW,210,7.0,15.0,91,0.21,,,-99.99,,2013-06-15 10:44:00,
2013-06-15 05:53:00,58.0,55.0,-100.00,SSW,210,7.0,15.0,91,0.21,,,-99.99,,2013-06-15 10:53:00,
2013-06-15 06:02:00,58.0,55.0,-100.00,SSW,210,7.0,15.0,91,0.21,,,-99.99,,2013-06-15 11:02:00,
2013-06-15 06:11:00,58.0,55.0,-100.00,SSW,210,7.0,15.0,91,0.21,,,-99.99,,2013-06-15 11:11:00,
2013-06-15 06:22:00,58.0,56.0,-100.00,SW,230,7.0,9.0,91,0.00,,,-99.99,,2013-06-15 11:22:00,
2013-06-15 06:43:00,58.0,56.0,-100.00,SW,230,7.0,9.0,91,0.00,,,-99.99,,2013-06-15 11:43:00,
2013-06-15 06:53:00,58.0,56.0,-100.00,SW,230,7.0,9.0,91,0.00,,,-99.99,,2013-06-15 11:53:00,
2013-06-15 07:01:00,58.0,56.0,-100.00,SW,230,7.0,9.0,91,0.00,,,-99.99,,2013-06-15 12:01:00,
2013-06-15 07:12:00,58.0,56.0,-100.00,SW,230,7.0,9.0,91,0.00,,,-99.99,,2013-06-15 12:12:00,
2013-06-15 07:22:00,60.0,57.0,-100.00,South,190,6.0,10.0,91,0.00,,,-99.99,,2013-06-15 12:22:00,
2013-06-15 07:43:00,60.0,57.0,-100.00,South,190,6.0,10.0,91,0.00,,,-99.99,,2013-06-15 12:43:00,
2013-06-15 07:52:00,60.0,57.0,-100.00,South,190,6.0,10.0,91,0.00,,,-99.99,,2013-06-15 12:52:00,
2013-06-15 08:02:00,60.0,57.0,-100.00,South,190,6.0,10.0,91,0.00,,,-99.99,,2013-06-15 13:02:00,
2013-06-15 08:11:00,60.0,57.0,-100.00,South,190,6.0,10.0,91,0.00,,,-99.99,,2013-06-15 13:11:00,
2013-06-15 08:20:00,62.0,59.0,-100.00,SSW,205,5.0,14.0,91,0.00,,,-99.99,,2013-06-15 13:20:00,
2013-06-15 08:44:00,62.0,59.0,-100.00,SSW,205,5.0,14.0,91,0.00,,,-99.99,,2013-06-15 13:44:00,
2013-06-15 08:53:00,62.0,59.0,-100.00,SSW,205,5.0,14.0,91,0.00,,,-99.99,,2013-06-15 13:53:00,
2013-06-15 09:01:00,62.0,59.0,-100.00,SSW,205,5.0,14.0,91,0.00,,,-99.99,,2013-06-15 14:01:00,
2013-06-15 09:12:00,62.0,59.0,-100.00,SSW,205,5.0,14.0,91,0.00,,,-99.99,,2013-06-15 14:12:00,
2013-06-15 09:21:00,65.0,62.0,-100.00,SSW,195,4.0,7.0,90,0.00,,,-99.99,,2013-06-15 14:21:00,
2013-06-15 09:43:00,65.0,62.0,-100.00,SSW,195,4.0,7.0,90,0.00,,,-99.99,,2013-06-15 14:43:00,
2013-06-15 09:54:00,65.0,62.0,-100.00,SSW,195,4.0,7.0,90,0.00,,,-99.99,,2013-06-15 14:54:00,
2013-06-15 10:02:00,65.0,62.0,-100.00,SSW,195,4.0,7.0,90,0.00,,,-99.99,,2013-06-15 15:02:00,
2013-06-15 10:11:00,65.0,62.0,-100.00,SSW,195,4.0,7.0,90,0.00,,,-99.99,,2013-06-15 15:11:00,
2013-06-15 10:22:00,67.0,63.0,-100.00,NE,40,3.0,6.0,87,0.00,,,-99.99,,2013-06-15 15:22:00,
2013-06-15 10:43:00,67.0,63.0,-100.00,NE,40,3.0,6.0,87,0.00,,,-99.99,,2013-06-15 15:43:00,
2013-06-15 10:53:00,67.0,63.0,-100.00,NE,40,3.0,6.0,87,0.00,,,-99.99,,2013-06-15 15:53:00,
2013-06-15 11:01:00,67.0,63.0,-100.00,NE,40,3.0,6.0,87,0.00,,,-99.99,,2013-06-15 16:01:00,
2013-06-15 11:11:00,67.0,63.0,-100.00,NE,40,3.0,6.0,87,0.00,,,-99.99,,2013-06-15 16:11:00,
2013-06-15 11:22:00,73.0,64.0,-100.00,WSW,245,4.0,9.0,75,0.00,,,-99.99,,2013-06-15 16:22:00,
2013-06-15 11:43:00,73.0,64.0,-100.00,WSW,245,4.0,9.0,75,0.00,,,-99.99,,2013-06-15 16:43:00,
2013-06-15 11:53:00,73.0,64.0,-100.00,WSW,245,4.0,9.0,75,0.00,,,-99.99,,2013-06-15 16:53:00,
2013-06-15 12:02:00,73.0,64.0,-100.00,WSW,245,4.0,9.0,75,0.00,,,-99.99,,2013-06-15 17:02:00,
2013-06-15 12:12:00,73.0,64.0,-100.00,WSW,245,4.0,9.0,75,0.00,,,-99.99,,2013-06-15 17:12:00,
2013-06-15 12:21:00,73.0,64.0,-100.00,SSW,205,5.0,9.0,74,0.00,,,-99.99,,2013-06-15 17:21:00,
2013-06-15 12:43:00,73.0,64.0,-100.00,SSW,205,5.0,9.0,74,0.00,,,-99.99,,2013-06-15 17:43:00,
2013-06-15 12:52:00,73.0,64.0,-100.00,SSW,205,5.0,9.0,74,0.00,,,-99.99,,2013-06-15 17:52:00,
2013-06-15 13:01:00,73.0,64.0,-100.00,SSW,205,5.0,9.0,74,0.00,,,-99.99,,2013-06-15 18:01:00,
2013-06-15 13:12:00,73.0,64.0,-100.00,SSW,205,5.0,9.0,74,0.00,,,-99.99,,2013-06-15 18:12:00,
2013-06-15 13:21:00,76.0,64.0,-100.00,SW,230,6.0,12.0,68,0.00,,,-99.99,,2013-06-15 18:21:00,
2013-06-15 13:43:00,76.0,64.0,-100.00,SW,230,6.0,12.0,68,0.00,,,-99.99,,2013-06-15 18:43:00,
2013-06-15 13:53:00,76.0,64.0,-100.00,SW,230,6.0,12.0,68,0.00,,,-99.99,,2013-06-15 18:53:00,
2013-06-15 14:01:00,76.0,64.0,-100.00,SW,230,6.0,12.0,68,0.00,,,-99.99,,2013-06-15 19:01:00,
2013-06-15 14:11:00,76.0,64.0,-100.00,SW,230,6.0,12.0,68,0.00,,,-99.99,,2013-06-15 19:11:00,
2013-06-15 14:43:00,77.0,63.0,-100.00,SW,225,7.0,15.0,62,0.00,,,-99.99,,2013-06-15 19:43:00,
2013-06-15 14:53:00,77.0,63.0,-100.00,SW,225,7.0,15.0,62,0.00,,,-99.99,,2013-06-15 19:53:00,
2013-06-15 15:02:00,77.0,63.0,-100.00,SW,225,7.0,15.0,62,0.00,,,-99.99,,2013-06-15 20:02:00,
2013-06-15 15:11:00,77.0,63.0,-100.00,SW,225,7.0,15.0,62,0.00,,,-99.99,,2013-06-15 20:11:00,
2013-06-15 15:22:00,77.0,63.0,-100.00,SW,225,7.0,15.0,62,0.00,,,-99.99,,2013-06-15 20:22:00,
2013-06-15 15:43:00,80.0,65.0,-100.00,SW,215,5.0,10.0,62,0.00,,,-99.99,,2013-06-15 20:43:00,
2013-06-15 15:53:00,80.0,65.0,-100.00,SW,215,5.0,10.0,62,0.00,,,-99.99,,2013-06-15 20:53:00,
2013-06-15 16:01:00,80.0,65.0,-100.00,SW,215,5.0,10.0,62,0.00,,,-99.99,,2013-06-15 21:01:00,
2013-06-15 16:12:00,80.0,65.0,-100.00,SW,215,5.0,10.0,62,0.00,,,-99.99,,2013-06-15 21:12:00,
2013-06-15 16:22:00,80.0,63.0,-100.00,SW,230,9.0,17.0,57,0.00,,,-99.99,,2013-06-15 21:22:00,
2013-06-15 16:42:00,80.0,63.0,-100.00,SW,230,9.0,17.0,57,0.00,,,-99.99,,2013-06-15 21:42:00,
2013-06-15 16:53:00,80.0,63.0,-100.00,SW,230,9.0,17.0,57,0.00,,,-99.99,,2013-06-15 21:53:00,
2013-06-15 17:01:00,80.0,63.0,-100.00,SW,230,9.0,17.0,57,0.00,,,-99.99,,2013-06-15 22:01:00,
2013-06-15 17:11:00,80.0,63.0,-100.00,SW,230,9.0,17.0,57,0.00,,,-99.99,,2013-06-15 22:11:00,
2013-06-15 17:21:00,80.0,64.0,-100.00,SSW,195,6.0,7.0,58,0.00,,,-99.99,,2013-06-15 22:21:00,
2013-06-15 17:43:00,80.0,64.0,-100.00,SSW,195,6.0,7.0,58,0.00,,,-99.99,,2013-06-15 22:43:00,
2013-06-15 17:53:00,80.0,64.0,-100.00,SSW,195,6.0,7.0,58,0.00,,,-99.99,,2013-06-15 22:53:00,
2013-06-15 18:02:00,80.0,64.0,-100.00,SSW,195,6.0,7.0,58,0.00,,,-99.99,,2013-06-15 23:02:00,
2013-06-15 18:12:00,80.0,64.0,-100.00,SSW,195,6.0,7.0,58,0.00,,,-99.99,,2013-06-15 23:12:00,
2013-06-15 18:21:00,79.0,65.0,-100.00,South,190,2.0,4.0,64,0.00,,,-99.99,,2013-06-15 23:21:00,
2013-06-15 18:43:00,79.0,65.0,-100.00,South,190,2.0,4.0,64,0.00,,,-99.99,,2013-06-15 23:43:00,
2013-06-15 18:53:00,79.0,65.0,-100.00,South,190,2.0,4.0,64,0.00,,,-99.99,,2013-06-15 23:53:00,
2013-06-15 19:02:00,79.0,65.0,-100.00,South,190,2.0,4.0,64,0.00,,,-99.99,,2013-06-16 00:02:00,
2013-06-15 19:11:00,79.0,65.0,-100.00,South,190,2.0,4.0,64,0.00,,,-99.99,,2013-06-16 00:11:00,
2013-06-15 19:20:00,75.0,69.0,-100.00,SSW,195,6.0,7.0,82,0.00,,,-99.99,,2013-06-16 00:20:00,
2013-06-15 19:43:00,75.0,69.0,-100.00,SSW,195,6.0,7.0,82,0.00,,,-99.99,,2013-06-16 00:43:00,
2013-06-15 19:52:00,75.0,69.0,-100.00,SSW,195,6.0,7.0,82,0.00,,,-99.99,,2013-06-16 00:52:00,
2013-06-15 20:01:00,75.0,69.0,-100.00,SSW,195,6.0,7.0,82,0.00,,,-99.99,,2013-06-16 01:01:00,
2013-06-15 20:11:00,75.0,69.0,-100.00,SSW,195,6.0,7.0,82,0.00,,,-99.99,,2013-06-16 01:11:00,
2013-06-15 20:20:00,73.0,69.0,-100.00,WSW,250,4.0,6.0,85,0.03,,,-99.99,,2013-06-16 01:20:00,
2013-06-15 20:43:00,73.0,69.0,-100.00,WSW,250,4.0,6.0,85,0.03,,,-99.99,,2013-06-16 01:43:00,
2013-06-15 20:53:00,73.0,69.0,-100.00,WSW,250,4.0,6.0,85,0.03,,,-99.99,,2013-06-16 01:53:00,
2013-06-15 21:02:00,73.0,69.0,-100.00,WSW,250,4.0,6.0,85,0.03,,,-99.99,,2013-06-16 02:02:00,
2013-06-15 21:12:00,73.0,69.0,-100.00,WSW,250,4.0,6.0,85,0.03,,,-99.99,,2013-06-16 02:12:00,
2013-06-15 21:43:00,67.0,64.0,-100.00,NW,310,6.0,12.0,91,0.00,,,-99.99,,2013-06-16 02:43:00,
2013-06-15 21:53:00,67.0,64.0,-100.00,NW,310,6.0,12.0,91,0.00,,,-99.99,,2013-06-16 02:53:00,
2013-06-15 22:02:00,67.0,64.0,-100.00,NW,310,6.0,12.0,91,0.00,,,-99.99,,2013-06-16 03:02:00,
2013-06-15 22:12:00,67.0,64.0,-100.00,NW,310,6.0,12.0,91,0.00,,,-99.99,,2013-06-16 03:12:00,
2013-06-15 22:22:00,67.0,64.0,-100.00,NW,310,6.0,12.0,91,0.00,,,-99.99,,2013-06-16 03:22:00,
2013-06-15 22:43:00,65.0,63.0,-100.00,WNW,285,3.0,7.0,91,0.00,,,-99.99,,2013-06-16 03:43:00,
2013-06-15 22:53:00,65.0,63.0,-100.00,WNW,285,3.0,7.0,91,0.00,,,-99.99,,2013-06-16 03:53:00,
2013-06-15 23:02:00,65.0,63.0,-100.00,WNW,285,3.0,7.0,91,0.00,,,-99.99,,2013-06-16 04:02:00,
2013-06-15 23:12:00,65.0,63.0,-100.00,WNW,285,3.0,7.0,91,0.00,,,-99.99,,2013-06-16 04:12:00,
2013-06-15 23:21:00,64.0,62.0,-100.00,SSW,210,1.0,3.0,91,0.00,,,-99.99,,2013-06-16 04:21:00,
2013-06-15 23:43:00,64.0,62.0,-100.00,SSW,210,1.0,3.0,91,0.00,,,-99.99,,2013-06-16 04:43:00,
2013-06-15 23:53:00,64.0,62.0,-100.00,SSW,210,1.0,3.0,91,0.00,,,-99.99,,2013-06-16 04:53:00,